Terminal Aerodrome Forecast
Issued by NWS

Home | Current Version | Previous Version | Text Only | Print | Product List | Glossary On
Versions: 1 2 3 4 5 6 7 8 9 10 11 12 13 14 15 16 17 18 19
000
FTUS43 KGRB 301300 AAA
TAFATW
TAF AMD
KATW 301325Z 3013/3112 01004KT P6SM BKN005
      TEMPO 3013/3015 5SM BR SCT005 SCT025
     FM301500 33006KT P6SM SCT025
     FM302000 28005KT P6SM VCSH SCT040 BKN080
     FM310300 24005KT P6SM SCT080=

USA.gov is the U.S. government's official web portal to all federal, state and local government web resources and services.